createdAt,value
2023-03-12T00:00:10.669Z,96716.16
2023-03-12T00:02:38.107Z,96712.44
2023-03-12T00:05:05.990Z,96715.41
2023-03-12T00:07:33.264Z,96721.84
2023-03-12T00:10:00.449Z,96727.41
2023-03-12T00:12:27.851Z,96732.72
2023-03-12T00:14:55.035Z,96730.00
2023-03-12T00:17:22.281Z,96733.88
2023-03-12T00:19:53.987Z,96732.03
2023-03-12T00:22:25.767Z,96731.91
2023-03-12T00:24:58.141Z,96732.50
2023-03-12T00:27:26.391Z,96732.41
2023-03-12T00:29:53.922Z,96742.91
2023-03-12T00:32:21.470Z,96738.38
2023-03-12T00:34:55.133Z,96747.56
2023-03-12T00:37:23.022Z,96745.97
2023-03-12T00:39:50.657Z,96748.38
2023-03-12T00:42:18.364Z,96752.31
2023-03-12T00:44:46.088Z,96742.53
2023-03-12T00:47:14.260Z,96750.75
2023-03-12T00:49:41.781Z,96755.25
2023-03-12T00:52:09.310Z,96754.94
2023-03-12T00:54:37.000Z,96755.06
2023-03-12T00:57:04.615Z,96761.78
2023-03-12T00:59:32.841Z,96763.41
2023-03-12T01:02:00.048Z,96761.38
2023-03-12T01:04:27.509Z,96764.91
2023-03-12T01:06:55.890Z,96763.75
2023-03-12T01:09:23.400Z,96765.44
2023-03-12T01:11:52.056Z,96763.81
2023-03-12T01:14:19.358Z,96763.06
2023-03-12T01:16:47.545Z,96771.56
2023-03-12T01:19:14.902Z,96762.47
2023-03-12T01:21:42.199Z,96768.69
2023-03-12T01:24:10.019Z,96761.78
2023-03-12T01:26:37.347Z,96759.25
2023-03-12T01:29:04.738Z,96753.56
2023-03-12T01:31:32.218Z,96751.47
2023-03-12T01:33:59.792Z,96743.84
2023-03-12T01:36:29.818Z,96744.44
2023-03-12T01:38:59.753Z,96747.25
2023-03-12T01:41:32.116Z,96747.59
2023-03-12T01:44:03.686Z,96745.88
2023-03-12T01:46:38.405Z,96752.25
2023-03-12T01:49:13.418Z,96762.47
2023-03-12T01:52:03.539Z,96764.81
2023-03-12T01:54:44.989Z,96762.47
2023-03-12T01:57:17.282Z,96774.75
2023-03-12T01:59:56.085Z,96772.31
2023-03-12T02:02:27.233Z,96763.25
2023-03-12T02:05:08.704Z,96775.94
2023-03-12T02:07:36.154Z,96777.78
2023-03-12T02:10:05.604Z,96777.47
2023-03-12T02:12:33.055Z,96783.44
2023-03-12T02:15:00.356Z,96769.69
2023-03-12T02:17:27.776Z,96775.94
2023-03-12T02:20:17.518Z,96775.47
2023-03-12T02:22:52.867Z,96778.72
2023-03-12T02:25:44.173Z,96784.56
2023-03-12T02:28:15.950Z,96776.44
2023-03-12T02:30:49.899Z,96777.66
2023-03-12T02:33:17.511Z,96781.22
2023-03-12T02:35:47.671Z,96785.25
2023-03-12T02:38:34.834Z,96788.81
2023-03-12T02:41:19.279Z,96786.06
2023-03-12T02:43:58.494Z,96787.88
2023-03-12T02:46:26.859Z,96793.91
2023-03-12T02:48:55.310Z,96794.09
2023-03-12T02:51:22.598Z,96804.47
2023-03-12T02:53:54.793Z,96805.44
2023-03-12T02:56:27.898Z,96809.03
2023-03-12T02:58:55.170Z,96810.63
2023-03-12T03:01:24.223Z,96809.63
2023-03-12T03:03:51.651Z,96805.59
2023-03-12T03:06:18.910Z,96815.38
2023-03-12T03:08:46.733Z,96821.97
2023-03-12T03:11:14.523Z,96826.16
2023-03-12T03:13:41.702Z,96829.38
2023-03-12T03:16:09.845Z,96827.59
2023-03-12T03:18:37.172Z,96834.19
2023-03-12T03:21:07.834Z,96827.78
2023-03-12T03:23:37.228Z,96825.22
2023-03-12T03:26:05.414Z,96835.97
2023-03-12T03:28:32.662Z,96832.41
2023-03-12T03:31:02.101Z,96841.13
2023-03-12T03:33:36.114Z,96845.13
2023-03-12T03:36:06.167Z,96853.09
2023-03-12T03:38:37.045Z,96852.91
2023-03-12T03:41:05.022Z,96862.88
2023-03-12T03:43:35.197Z,96867.03
2023-03-12T03:46:05.876Z,96864.88
2023-03-12T03:48:36.939Z,96860.88
2023-03-12T03:51:07.556Z,96863.88
2023-03-12T03:53:36.609Z,96866.66
2023-03-12T03:56:14.350Z,96868.03
2023-03-12T03:58:46.476Z,96869.22
2023-03-12T04:01:16.080Z,96866.81
2023-03-12T04:03:45.060Z,96863.84
2023-03-12T04:06:13.191Z,96869.81
2023-03-12T04:08:41.048Z,96876.78
2023-03-12T04:11:18.259Z,96877.47
2023-03-12T04:13:46.812Z,96884.47
2023-03-12T04:16:16.901Z,96883.75
2023-03-12T04:18:45.393Z,96879.59
2023-03-12T04:21:14.609Z,96890.75
2023-03-12T04:23:43.030Z,96881.59
2023-03-12T04:26:12.287Z,96885.38
2023-03-12T04:28:40.014Z,96892.13
2023-03-12T04:31:10.478Z,96887.34
2023-03-12T04:33:46.253Z,96891.75
2023-03-12T04:36:16.234Z,96892.19
2023-03-12T04:38:45.740Z,96896.34
2023-03-12T04:41:17.293Z,96896.94
2023-03-12T04:43:49.370Z,96911.09
2023-03-12T04:46:18.658Z,96906.50
2023-03-12T04:48:45.890Z,96908.09
2023-03-12T04:51:14.373Z,96904.91
2023-03-12T04:53:41.941Z,96910.72
2023-03-12T04:56:10.940Z,96919.25
2023-03-12T04:58:39.337Z,96923.25
2023-03-12T05:01:07.135Z,96916.09
2023-03-12T05:03:35.212Z,96923.06
2023-03-12T05:06:02.632Z,96916.66
2023-03-12T05:08:30.262Z,96918.06
2023-03-12T05:10:57.604Z,96915.06
2023-03-12T05:13:26.410Z,96922.28
2023-03-12T05:15:56.921Z,96926.25
2023-03-12T05:18:26.553Z,96927.84
2023-03-12T05:21:16.064Z,96932.41
2023-03-12T05:23:44.555Z,96945.16
2023-03-12T05:26:27.458Z,96937.19
2023-03-12T05:29:02.341Z,96928.78
2023-03-12T05:31:33.192Z,96937.97
2023-03-12T05:34:03.062Z,96947.50
2023-03-12T05:36:31.472Z,96950.44
2023-03-12T05:39:00.025Z,96957.41
2023-03-12T05:41:30.783Z,96957.69
2023-03-12T05:44:04.305Z,96958.69
2023-03-12T05:46:31.926Z,96973.16
2023-03-12T05:49:00.371Z,96977.38
2023-03-12T05:51:28.061Z,96986.19
2023-03-12T05:53:55.334Z,96984.63
2023-03-12T05:56:22.714Z,96982.31
2023-03-12T05:58:50.141Z,96985.00
2023-03-12T06:01:28.680Z,96993.03
2023-03-12T06:03:58.217Z,97003.59
2023-03-12T06:06:26.451Z,97001.78
2023-03-12T06:08:54.555Z,97012.06
2023-03-12T06:11:21.864Z,97010.03
2023-03-12T06:13:49.084Z,97021.34
2023-03-12T06:16:23.208Z,97023.78
2023-03-12T06:18:54.879Z,97021.22
2023-03-12T06:21:27.114Z,97025.16
2023-03-12T06:23:55.012Z,97031.94
2023-03-12T06:26:28.386Z,97033.22
2023-03-12T06:28:55.825Z,97040.38
2023-03-12T06:31:24.394Z,97044.59
2023-03-12T06:33:53.807Z,97047.94
2023-03-12T06:36:21.504Z,97048.53
2023-03-12T06:38:48.906Z,97046.06
2023-03-12T06:41:19.277Z,97050.97
2023-03-12T06:43:47.595Z,97046.38
2023-03-12T06:46:18.589Z,97050.34
2023-03-12T06:48:46.651Z,97052.56
2023-03-12T06:51:17.257Z,97058.31
2023-03-12T06:53:45.983Z,97047.00
2023-03-12T06:56:13.983Z,97052.78
2023-03-12T06:58:42.035Z,97055.91
2023-03-12T07:01:09.796Z,97060.38
2023-03-12T07:03:37.486Z,97053.94
2023-03-12T07:06:05.711Z,97054.56
2023-03-12T07:08:33.267Z,97060.28
2023-03-12T07:11:01.960Z,97064.03
2023-03-12T07:13:30.429Z,97063.81
2023-03-12T07:15:58.163Z,97059.63
2023-03-12T07:18:25.682Z,97067.78
2023-03-12T07:20:54.252Z,97067.22
2023-03-12T07:23:22.322Z,97074.88
2023-03-12T07:25:50.477Z,97070.41
2023-03-12T07:28:19.241Z,97074.09
2023-03-12T07:30:50.688Z,97075.94
2023-03-12T07:33:21.846Z,97077.72
2023-03-12T07:35:51.659Z,97077.91
2023-03-12T07:38:19.516Z,97082.16
2023-03-12T07:40:55.961Z,97097.38
2023-03-12T07:43:25.220Z,97079.91
2023-03-12T07:45:55.160Z,97086.00
2023-03-12T07:48:22.470Z,97092.19
2023-03-12T07:50:49.756Z,97090.84
2023-03-12T07:53:17.564Z,97096.84
2023-03-12T07:55:46.883Z,97100.91
2023-03-12T07:58:16.613Z,97089.28
2023-03-12T08:00:45.044Z,97082.13
2023-03-12T08:03:13.793Z,97092.13
2023-03-12T08:05:41.705Z,97087.53
2023-03-12T08:08:09.803Z,97089.41
2023-03-12T08:10:37.595Z,97086.91
2023-03-12T08:13:05.003Z,97087.94
2023-03-12T08:15:33.562Z,97092.03
2023-03-12T08:18:01.587Z,97097.00
2023-03-12T08:20:29.052Z,97086.34
2023-03-12T08:22:56.264Z,97085.06
2023-03-12T08:25:24.911Z,97084.22
2023-03-12T08:27:52.453Z,97086.75
2023-03-12T08:30:19.822Z,97092.22
2023-03-12T08:32:47.286Z,97091.72
2023-03-12T08:35:14.578Z,97088.78
2023-03-12T08:37:41.960Z,97086.09
2023-03-12T08:40:15.880Z,97090.13
2023-03-12T08:42:45.013Z,97092.91
2023-03-12T08:45:13.599Z,97084.94
2023-03-12T08:47:42.900Z,97095.59
2023-03-12T08:50:13.028Z,97096.50
2023-03-12T08:52:40.434Z,97096.31
2023-03-12T08:55:08.363Z,97100.53
2023-03-12T08:57:35.808Z,97091.28
2023-03-12T09:00:06.074Z,97085.44
2023-03-12T09:02:33.662Z,97099.47
2023-03-12T09:05:00.879Z,97101.22
2023-03-12T09:07:28.404Z,97093.94
2023-03-12T09:09:56.017Z,97087.88
2023-03-12T09:12:24.274Z,97082.78
2023-03-12T09:15:03.863Z,97078.00
2023-03-12T09:17:32.372Z,97078.19
2023-03-12T09:20:00.260Z,97081.72
2023-03-12T09:22:30.665Z,97085.94
2023-03-12T09:24:58.011Z,97095.78
2023-03-12T09:27:25.340Z,97092.69
2023-03-12T09:30:00.723Z,97084.97
2023-03-12T09:32:29.583Z,97093.84
2023-03-12T09:34:57.134Z,97092.56
2023-03-12T09:37:24.679Z,97097.22
2023-03-12T09:39:53.211Z,97096.72
2023-03-12T09:42:47.579Z,97093.97
2023-03-12T09:45:26.600Z,97093.22
2023-03-12T09:47:58.587Z,97099.06
2023-03-12T09:50:40.734Z,97109.84
2023-03-12T09:53:21.332Z,97106.47
2023-03-12T09:55:52.636Z,97098.59
2023-03-12T09:58:33.684Z,97108.78
2023-03-12T10:01:24.080Z,97113.94
2023-03-12T10:04:25.268Z,97102.00
2023-03-12T10:06:56.155Z,97106.91
2023-03-12T10:09:32.671Z,97106.94
2023-03-12T10:12:35.718Z,97104.44
2023-03-12T10:15:47.472Z,97103.72
2023-03-12T10:18:21.293Z,97097.41
2023-03-12T10:21:12.149Z,97102.81
2023-03-12T10:23:47.518Z,97106.69
2023-03-12T10:26:44.101Z,97089.03
2023-03-12T10:29:19.513Z,97098.31
2023-03-12T10:31:58.725Z,97100.75
2023-03-12T10:34:49.152Z,97097.00
2023-03-12T10:37:26.898Z,97090.03
2023-03-12T10:40:01.011Z,97096.03
2023-03-12T10:42:30.641Z,97090.50
2023-03-12T10:45:11.055Z,97079.41
2023-03-12T10:47:39.128Z,97098.34
2023-03-12T10:50:20.325Z,97091.88
2023-03-12T10:52:50.737Z,97094.50
2023-03-12T10:55:24.708Z,97079.50
2023-03-12T10:57:53.175Z,97081.75
2023-03-12T11:00:27.271Z,97078.00
2023-03-12T11:03:05.514Z,97072.00
2023-03-12T11:05:37.246Z,97080.22
2023-03-12T11:08:20.541Z,97077.38
2023-03-12T11:10:48.318Z,97066.69
2023-03-12T11:13:30.291Z,97071.88
2023-03-12T11:16:17.655Z,97066.78
2023-03-12T11:19:01.386Z,97070.41
2023-03-12T11:21:31.657Z,97067.69
2023-03-12T11:23:58.739Z,97072.88
2023-03-12T11:26:35.171Z,97065.81
2023-03-12T11:29:40.107Z,97067.41
2023-03-12T11:32:34.645Z,97066.66
2023-03-12T11:35:02.105Z,97071.44
2023-03-12T11:37:59.923Z,97051.19
2023-03-12T11:40:59.940Z,97054.44
2023-03-12T11:43:58.592Z,97051.00
2023-03-12T11:46:28.476Z,97053.91
2023-03-12T11:49:09.026Z,97060.66
2023-03-12T11:51:51.246Z,97050.34
2023-03-12T11:54:58.054Z,97057.31
2023-03-12T11:57:49.898Z,97061.03
2023-03-12T12:00:21.173Z,97054.31
2023-03-12T12:03:17.817Z,97049.31
2023-03-12T12:06:37.017Z,97065.28
2023-03-12T12:09:40.609Z,97058.81
2023-03-12T12:12:31.467Z,97056.47
2023-03-12T12:15:39.064Z,97050.53
2023-03-12T12:18:42.851Z,97057.41
2023-03-12T12:21:51.462Z,97053.25
2023-03-12T12:24:34.702Z,97052.47
2023-03-12T12:27:18.922Z,97053.25
2023-03-12T12:30:04.679Z,97057.75
2023-03-12T12:32:55.615Z,97049.78
2023-03-12T12:35:26.487Z,97055.25
2023-03-12T12:38:38.104Z,97050.03
2023-03-12T12:41:40.672Z,97063.75
2023-03-12T12:44:18.092Z,97056.72
2023-03-12T12:47:03.842Z,97056.47
2023-03-12T12:49:49.016Z,97054.28
2023-03-12T12:52:20.243Z,97055.06
2023-03-12T12:55:06.769Z,97043.69
2023-03-12T12:57:48.485Z,97043.63
2023-03-12T13:00:42.288Z,97039.63
2023-03-12T13:03:25.034Z,97045.06
2023-03-12T13:06:03.611Z,97050.28
2023-03-12T13:08:34.408Z,97044.22
2023-03-12T13:11:20.323Z,97042.13
2023-03-12T13:14:03.651Z,97046.44
2023-03-12T13:16:39.358Z,97055.47
2023-03-12T13:19:15.341Z,97042.69
2023-03-12T13:22:15.559Z,97038.31
2023-03-12T13:25:41.806Z,97035.97
2023-03-12T13:29:11.421Z,97037.06
2023-03-12T13:31:41.938Z,97033.75
2023-03-12T13:34:18.136Z,97026.94
2023-03-12T13:36:52.477Z,97025.84
2023-03-12T13:39:35.292Z,97024.84
2023-03-12T13:42:34.790Z,97031.41
2023-03-12T13:45:25.203Z,97038.03
2023-03-12T13:47:58.403Z,97035.78
2023-03-12T13:50:26.796Z,97036.16
2023-03-12T13:53:14.997Z,97034.03
2023-03-12T13:55:43.855Z,97035.03
2023-03-12T13:58:23.616Z,97041.44
2023-03-12T14:01:04.736Z,97041.38
2023-03-12T14:03:40.688Z,97032.72
2023-03-12T14:06:17.834Z,97040.63
2023-03-12T14:09:08.366Z,97032.97
2023-03-12T14:12:14.370Z,97039.44
2023-03-12T14:15:03.134Z,97030.53
2023-03-12T14:17:33.373Z,97035.66
2023-03-12T14:20:07.514Z,97037.91
2023-03-12T14:22:38.296Z,97046.00
2023-03-12T14:25:29.090Z,97042.78
2023-03-12T14:27:56.323Z,97045.81
2023-03-12T14:30:39.589Z,97043.38
2023-03-12T14:33:07.743Z,97048.63
2023-03-12T14:35:40.608Z,97049.13
2023-03-12T14:38:12.334Z,97051.22
2023-03-12T14:40:46.089Z,97049.72
2023-03-12T14:43:26.967Z,97046.78
2023-03-12T14:46:03.778Z,97046.69
2023-03-12T14:48:33.649Z,97046.91
2023-03-12T14:51:02.578Z,97044.88
2023-03-12T14:53:33.175Z,97042.63
2023-03-12T14:56:07.738Z,97045.25
2023-03-12T14:58:41.828Z,97050.94
2023-03-12T15:01:15.305Z,97040.97
2023-03-12T15:03:46.553Z,97040.53
2023-03-12T15:06:35.055Z,97035.91
2023-03-12T15:09:04.652Z,97043.56
2023-03-12T15:11:34.068Z,97039.94
2023-03-12T15:14:08.306Z,97032.19
2023-03-12T15:16:35.979Z,97041.19
2023-03-12T15:19:04.245Z,97047.03
2023-03-12T15:21:35.732Z,97041.22
2023-03-12T15:24:03.788Z,97056.59
2023-03-12T15:26:34.579Z,97036.03
2023-03-12T15:29:26.813Z,97044.22
2023-03-12T15:31:59.021Z,97041.97
2023-03-12T15:34:28.400Z,97048.22
2023-03-12T15:36:55.638Z,97038.44
2023-03-12T15:39:27.314Z,97034.22
2023-03-12T15:41:55.233Z,97027.75
2023-03-12T15:44:24.768Z,97034.16
2023-03-12T15:47:04.982Z,97027.25
2023-03-12T15:49:36.220Z,97022.31
2023-03-12T15:52:26.667Z,97019.38
2023-03-12T15:55:05.895Z,97014.06
2023-03-12T15:57:54.455Z,97004.88
2023-03-12T16:00:41.289Z,97010.63
2023-03-12T16:03:19.586Z,97017.56
2023-03-12T16:05:47.674Z,97018.41
2023-03-12T16:08:23.455Z,97017.59
2023-03-12T16:10:50.859Z,97019.81
2023-03-12T16:13:21.328Z,97026.66
2023-03-12T16:15:49.058Z,97028.63
2023-03-12T16:18:19.093Z,97021.50
2023-03-12T16:20:47.973Z,97019.16
2023-03-12T16:23:15.917Z,97016.47
2023-03-12T16:25:45.490Z,97011.47
2023-03-12T16:28:15.616Z,97003.72
2023-03-12T16:30:42.942Z,96998.50
2023-03-12T16:33:14.267Z,97008.84
2023-03-12T16:35:41.563Z,97023.97
2023-03-12T16:38:08.870Z,97030.00
2023-03-12T16:40:38.361Z,97026.19
2023-03-12T16:43:07.873Z,97023.34
2023-03-12T16:45:36.424Z,97035.22
2023-03-12T16:48:06.868Z,97030.38
2023-03-12T16:50:34.010Z,97026.84
2023-03-12T16:53:02.695Z,97017.03
2023-03-12T16:55:30.615Z,97024.59
2023-03-12T16:58:02.256Z,97011.94
2023-03-12T17:00:32.801Z,97009.84
2023-03-12T17:03:00.665Z,97010.00
2023-03-12T17:05:30.045Z,97011.41
2023-03-12T17:07:57.373Z,97011.78
2023-03-12T17:10:25.744Z,97017.31
2023-03-12T17:12:53.401Z,97022.66
2023-03-12T17:15:23.536Z,97039.59
2023-03-12T17:17:50.762Z,97034.69
2023-03-12T17:20:20.857Z,97030.09
2023-03-12T17:22:48.414Z,97022.47
2023-03-12T17:25:26.064Z,97013.78
2023-03-12T17:27:53.954Z,97013.63
2023-03-12T17:30:22.133Z,97003.22
2023-03-12T17:32:50.826Z,96995.00
2023-03-12T17:35:19.276Z,97005.78
2023-03-12T17:37:48.514Z,97008.44
2023-03-12T17:40:16.498Z,97013.75
2023-03-12T17:42:43.587Z,97012.19
2023-03-12T17:45:11.229Z,97010.31
2023-03-12T17:47:38.388Z,97003.75
2023-03-12T17:50:06.928Z,96998.84
2023-03-12T17:52:34.265Z,96992.22
2023-03-12T17:55:01.751Z,96994.75
2023-03-12T17:57:29.920Z,97005.50
2023-03-12T17:59:57.037Z,97008.34
2023-03-12T18:02:24.697Z,96996.97
2023-03-12T18:04:51.929Z,96976.56
2023-03-12T18:07:19.066Z,96980.66
2023-03-12T18:09:46.296Z,96970.19
2023-03-12T18:12:13.486Z,96978.88
2023-03-12T18:14:40.673Z,96967.75
2023-03-12T18:17:08.013Z,96962.38
2023-03-12T18:19:35.679Z,96965.13
2023-03-12T18:22:02.998Z,96975.84
2023-03-12T18:24:30.333Z,96970.75
2023-03-12T18:26:59.323Z,96966.78
2023-03-12T18:29:26.894Z,96972.50
2023-03-12T18:31:54.060Z,96965.53
2023-03-12T18:34:23.462Z,96960.56
2023-03-12T18:36:50.753Z,96971.28
2023-03-12T18:39:17.870Z,96977.03
2023-03-12T18:41:45.027Z,96973.50
2023-03-12T18:44:13.204Z,96982.22
2023-03-12T18:46:40.485Z,96982.34
2023-03-12T18:49:09.276Z,96989.59
2023-03-12T18:51:36.418Z,96980.63
2023-03-12T18:54:03.818Z,96989.16
2023-03-12T18:56:30.870Z,96998.19
2023-03-12T18:58:58.155Z,96983.50
2023-03-12T19:01:26.261Z,96982.63
2023-03-12T19:03:53.599Z,96970.34
2023-03-12T19:06:20.653Z,96978.66
2023-03-12T19:08:47.996Z,96980.78
2023-03-12T19:11:15.873Z,96992.03
2023-03-12T19:13:43.609Z,96994.81
2023-03-12T19:16:12.768Z,96980.66
2023-03-12T19:18:40.138Z,96977.94
2023-03-12T19:21:08.194Z,96980.22
2023-03-12T19:23:35.888Z,96978.97
2023-03-12T19:26:04.257Z,96973.59
2023-03-12T19:28:32.158Z,96980.13
2023-03-12T19:31:04.688Z,96981.88
2023-03-12T19:33:33.166Z,96988.75
2023-03-12T19:36:00.571Z,96989.38
2023-03-12T19:38:28.117Z,96989.66
2023-03-12T19:40:56.861Z,96983.31
2023-03-12T19:43:24.613Z,96977.38
2023-03-12T19:45:53.359Z,96986.56
2023-03-12T19:48:20.623Z,96986.00
2023-03-12T19:50:47.921Z,96986.97
2023-03-12T19:53:15.122Z,96981.78
2023-03-12T19:55:42.253Z,96978.72
2023-03-12T19:58:09.314Z,96978.66
2023-03-12T20:00:36.626Z,96968.13
2023-03-12T20:03:05.086Z,96964.50
2023-03-12T20:05:32.619Z,96972.72
2023-03-12T20:07:59.739Z,96969.31
2023-03-12T20:10:29.047Z,96962.47
2023-03-12T20:12:56.371Z,96962.44
2023-03-12T20:15:23.968Z,96965.50
2023-03-12T20:17:54.705Z,96959.34
2023-03-12T20:20:21.842Z,96954.66
2023-03-12T20:22:49.180Z,96945.28
2023-03-12T20:25:17.303Z,96940.97
2023-03-12T20:27:44.897Z,96941.50
2023-03-12T20:30:12.852Z,96941.44
2023-03-12T20:32:40.176Z,96930.25
2023-03-12T20:35:07.483Z,96930.56
2023-03-12T20:37:34.721Z,96923.03
2023-03-12T20:40:01.905Z,96923.03
2023-03-12T20:42:29.004Z,96915.28
2023-03-12T20:44:56.118Z,96916.75
2023-03-12T20:47:23.359Z,96921.38
2023-03-12T20:49:50.586Z,96904.53
2023-03-12T20:52:17.661Z,96907.72
2023-03-12T20:54:44.759Z,96897.66
2023-03-12T20:57:11.823Z,96895.16
2023-03-12T20:59:39.011Z,96894.63
2023-03-12T21:02:06.349Z,96899.31
2023-03-12T21:04:33.694Z,96890.84
2023-03-12T21:07:00.737Z,96890.38
2023-03-12T21:09:27.973Z,96886.97
2023-03-12T21:11:55.183Z,96884.06
2023-03-12T21:14:22.469Z,96892.00
2023-03-12T21:16:49.905Z,96881.16
2023-03-12T21:19:17.053Z,96882.56
2023-03-12T21:21:44.184Z,96887.06
2023-03-12T21:24:11.587Z,96898.75
2023-03-12T21:26:38.807Z,96892.41
2023-03-12T21:29:05.964Z,96890.66
2023-03-12T21:31:33.111Z,96888.41
2023-03-12T21:34:00.188Z,96892.13
2023-03-12T21:36:27.497Z,96899.97
2023-03-12T21:38:54.664Z,96902.03
2023-03-12T21:41:21.953Z,96893.66
2023-03-12T21:43:49.164Z,96900.22
2023-03-12T21:46:19.372Z,96896.84
2023-03-12T21:48:47.849Z,96905.31
2023-03-12T21:51:16.579Z,96909.31
2023-03-12T21:53:43.980Z,96920.81
2023-03-12T21:56:11.313Z,96926.38
2023-03-12T21:58:38.431Z,96932.53
2023-03-12T22:01:13.732Z,96926.81
2023-03-12T22:03:42.291Z,96931.84
2023-03-12T22:06:10.246Z,96926.56
2023-03-12T22:08:38.133Z,96933.72
2023-03-12T22:11:06.365Z,96938.75
2023-03-12T22:13:33.754Z,96939.19
2023-03-12T22:16:03.351Z,96940.63
2023-03-12T22:18:30.504Z,96953.41
2023-03-12T22:21:01.819Z,96939.69
2023-03-12T22:23:30.055Z,96939.81
2023-03-12T22:26:04.697Z,96942.53
2023-03-12T22:28:32.095Z,96955.09
2023-03-12T22:31:04.145Z,96941.72
2023-03-12T22:33:31.414Z,96947.50
2023-03-12T22:35:58.706Z,96941.44
2023-03-12T22:38:25.945Z,96938.81
2023-03-12T22:40:55.510Z,96941.94
2023-03-12T22:43:25.357Z,96951.16
2023-03-12T22:45:55.482Z,96952.22
2023-03-12T22:48:22.538Z,96954.94
2023-03-12T22:50:55.948Z,96954.09
2023-03-12T22:53:23.182Z,96952.00
2023-03-12T22:56:00.574Z,96952.66
2023-03-12T22:58:28.283Z,96953.25
2023-03-12T23:01:16.157Z,96955.94
2023-03-12T23:03:44.863Z,96954.94
2023-03-12T23:06:17.393Z,96951.38
2023-03-12T23:08:47.063Z,96960.66
2023-03-12T23:11:15.499Z,96959.16
2023-03-12T23:13:44.661Z,96953.31
2023-03-12T23:16:14.656Z,96958.09
2023-03-12T23:18:44.914Z,96957.59
2023-03-12T23:21:15.216Z,96965.47
2023-03-12T23:23:43.593Z,96973.25
2023-03-12T23:26:16.813Z,96964.88
2023-03-12T23:28:44.118Z,96955.97
2023-03-12T23:31:11.231Z,96970.50
2023-03-12T23:33:38.508Z,96967.28
2023-03-12T23:36:08.884Z,96955.94
2023-03-12T23:38:37.609Z,96960.44
2023-03-12T23:41:06.433Z,96957.50
2023-03-12T23:43:33.749Z,96951.75
2023-03-12T23:46:02.786Z,96942.25
2023-03-12T23:48:31.754Z,96947.78
2023-03-12T23:51:12.383Z,96951.00
2023-03-12T23:53:40.703Z,96964.69
2023-03-12T23:56:11.208Z,96955.69
2023-03-12T23:58:38.986Z,96951.00
